Time;durP1;ratioP1;P1;durP2;ratioP2;P2;SDS_P1;SDS_P2;PMS_P1;PMS_P2;Temp;Humidity;BMP_temperature;BMP_pressure;BME280_temperature;BME280_humidity;BME280_pressure;Samples;Min_cycle;Max_cycle;Signal;HPM_P1;HPM_P2
2021/04/11 00:00:41;;;;;;;1.40;0.20;;;23.10;34.80;;;;;;5007351;28;20029;-80
2021/04/11 00:03:13;;;;;;;2.25;0.50;;;22.60;34.40;;;;;;5006826;28;20030;-82
2021/04/11 00:05:41;;;;;;;1.52;0.25;;;22.40;33.30;;;;;;5003709;28;20378;-83
2021/04/11 00:08:11;;;;;;;1.02;0.22;;;22.60;32.40;;;;;;5003132;28;20033;-83
2021/04/11 00:10:45;;;;;;;1.45;0.25;;;22.50;34.90;;;;;;5010021;28;20084;-78
2021/04/11 00:13:15;;;;;;;1.13;0.20;;;22.20;35.30;;;;;;5006841;28;20601;-81
2021/04/11 00:15:43;;;;;;;0.73;0.20;;;21.70;35.80;;;;;;5010698;28;20361;-82
2021/04/11 00:18:10;;;;;;;2.08;0.30;;;22.30;33.50;;;;;;5003395;28;20053;-84
2021/04/11 00:20:38;;;;;;;1.52;0.20;;;23.10;34.60;;;;;;5009467;28;20484;-79
2021/04/11 00:23:06;;;;;;;1.60;0.30;;;23.80;33.00;;;;;;5008995;28;20034;-83
2021/04/11 00:25:36;;;;;;;0.65;0.20;;;23.70;32.50;;;;;;5008779;28;20092;-78
2021/04/11 00:28:05;;;;;;;1.10;0.20;;;23.50;32.90;;;;;;5007750;28;20040;-82
2021/04/11 00:30:32;;;;;;;1.55;0.60;;;24.00;32.10;;;;;;5007349;28;20048;-79
2021/04/11 00:33:05;;;;;;;1.63;0.30;;;24.00;33.20;;;;;;5001952;28;20085;-77
2021/04/11 00:35:32;;;;;;;1.17;0.22;;;23.90;30.90;;;;;;5002931;28;20041;-80
2021/04/11 00:38:00;;;;;;;1.42;0.20;;;23.90;30.70;;;;;;5006279;28;20044;-77
2021/04/11 00:40:35;;;;;;;1.92;0.40;;;23.80;32.20;;;;;;5009416;28;20442;-78
2021/04/11 00:43:09;;;;;;;1.02;0.20;;;23.70;30.50;;;;;;5005944;28;20323;-80
2021/04/11 00:45:57;;;;;;;2.00;0.60;;;23.70;31.10;;;;;;5008046;28;20026;-79
2021/04/11 00:48:27;;;;;;;2.75;0.32;;;23.80;33.00;;;;;;5003951;28;20034;-76
2021/04/11 00:51:15;;;;;;;2.85;0.30;;;24.10;31.50;;;;;;5007069;28;20026;-79
2021/04/11 00:53:44;;;;;;;2.13;0.50;;;23.80;30.00;;;;;;5003537;28;20435;-80
2021/04/11 00:56:13;;;;;;;1.40;0.30;;;23.90;32.10;;;;;;5006971;28;20080;-76
2021/04/11 00:58:41;;;;;;;2.08;0.20;;;24.00;32.90;;;;;;5000551;28;20057;-81
2021/04/11 01:01:09;;;;;;;1.33;0.50;;;24.50;30.30;;;;;;5005029;28;20033;-80
2021/04/11 01:03:40;;;;;;;2.85;0.38;;;24.40;29.40;;;;;;5007420;28;20135;-80
2021/04/11 01:06:14;;;;;;;0.95;0.52;;;24.50;31.10;;;;;;5005606;28;20041;-78
2021/04/11 01:08:42;;;;;;;2.33;0.20;;;24.50;29.70;;;;;;5008273;28;20032;-81
2021/04/11 01:11:15;;;;;;;1.58;0.28;;;24.70;29.10;;;;;;5000207;28;20037;-79
2021/04/11 01:13:52;;;;;;;3.53;0.28;;;24.70;29.50;;;;;;5006161;28;20099;-79
2021/04/11 01:16:21;;;;;;;1.02;0.20;;;24.00;28.90;;;;;;5003316;28;20034;-78
2021/04/11 01:18:50;;;;;;;1.77;0.30;;;23.60;28.80;;;;;;5003674;28;20529;-75
2021/04/11 01:21:52;;;;;;;1.02;0.25;;;24.10;29.10;;;;;;5001313;28;20084;-77
2021/04/11 01:24:30;;;;;;;1.25;0.45;;;24.70;29.90;;;;;;5005163;28;20053;-77
2021/04/11 01:26:57;;;;;;;3.35;0.30;;;24.90;32.20;;;;;;5006466;28;20099;-75
2021/04/11 01:29:25;;;;;;;1.60;0.20;;;24.90;30.30;;;;;;4998906;28;20030;-82
2021/04/11 01:31:55;;;;;;;2.00;0.38;;;24.60;29.40;;;;;;4999627;28;20030;-77
2021/04/11 01:34:23;;;;;;;2.30;0.35;;;24.40;29.90;;;;;;5002345;28;20026;-76
2021/04/11 01:36:52;;;;;;;1.95;0.20;;;24.80;29.40;;;;;;5003572;28;20183;-74
2021/04/11 01:39:31;;;;;;;1.48;0.73;;;24.60;28.90;;;;;;5009483;28;20030;-76
2021/04/11 01:42:00;;;;;;;1.02;0.10;;;24.60;29.70;;;;;;5005659;28;20116;-75
2021/04/11 01:44:33;;;;;;;0.75;0.20;;;24.80;29.10;;;;;;5010078;28;20095;-74
2021/04/11 01:47:02;;;;;;;3.53;0.28;;;24.70;28.70;;;;;;5008047;28;20149;-77
2021/04/11 01:49:30;;;;;;;6.75;0.88;;;24.50;29.00;;;;;;5007598;28;20484;-76
2021/04/11 01:52:06;;;;;;;1.50;0.25;;;24.70;29.50;;;;;;5004594;28;20527;-80
2021/04/11 01:54:35;;;;;;;6.60;0.65;;;24.80;30.00;;;;;;5006451;28;20022;-76
2021/04/11 01:57:17;;;;;;;2.38;0.95;;;25.10;31.20;;;;;;5007598;28;20463;-73
2021/04/11 01:59:44;;;;;;;0.60;0.10;;;25.60;29.80;;;;;;5002124;28;20096;-76
2021/04/11 02:02:16;;;;;;;1.60;0.40;;;25.20;27.40;;;;;;5005404;28;20029;-75
2021/04/11 02:04:47;;;;;;;1.80;0.30;;;25.10;29.60;;;;;;5008891;28;20066;-74
2021/04/11 02:07:15;;;;;;;0.80;0.38;;;25.50;29.90;;;;;;5006234;28;20046;-76
2021/04/11 02:09:47;;;;;;;2.03;0.20;;;25.80;30.10;;;;;;5004966;28;20034;-80
2021/04/11 02:12:16;;;;;;;4.60;0.35;;;26.00;29.70;;;;;;5001058;28;20060;-73
2021/04/11 02:14:45;;;;;;;1.30;0.40;;;26.20;29.30;;;;;;5004734;28;20038;-80
2021/04/11 02:17:15;;;;;;;1.33;0.30;;;26.70;30.70;;;;;;5004227;28;20518;-74
2021/04/11 02:19:43;;;;;;;1.10;0.32;;;26.00;28.10;;;;;;5003788;28;20022;-77
2021/04/11 02:22:22;;;;;;;2.25;0.30;;;25.20;27.40;;;;;;5002808;28;20034;-78
2021/04/11 02:24:50;;;;;;;4.82;0.30;;;25.00;28.20;;;;;;5002633;28;20026;-81
2021/04/11 02:27:20;;;;;;;2.67;0.63;;;25.20;29.00;;;;;;5003951;28;20030;-72
2021/04/11 02:29:49;;;;;;;0.50;0.20;;;25.00;31.60;;;;;;5007788;28;20038;-78
2021/04/11 02:32:18;;;;;;;1.05;0.30;;;24.70;29.40;;;;;;5005550;28;20108;-79
2021/04/11 02:34:45;;;;;;;5.80;0.28;;;24.90;28.10;;;;;;5007084;28;20076;-74
2021/04/11 02:37:22;;;;;;;1.30;0.60;;;25.20;28.90;;;;;;5004221;28;20111;-78
2021/04/11 02:39:53;;;;;;;1.63;0.55;;;25.00;28.30;;;;;;5002597;28;20048;-74
2021/04/11 02:42:29;;;;;;;0.43;0.22;;;25.00;29.10;;;;;;5001313;28;20053;-76
2021/04/11 02:45:01;;;;;;;1.27;0.10;;;25.00;31.10;;;;;;5005317;28;20030;-75
2021/04/11 02:47:28;;;;;;;1.20;0.20;;;24.80;29.90;;;;;;5004078;28;20034;-77
2021/04/11 02:49:56;;;;;;;0.73;0.20;;;25.40;28.50;;;;;;5004880;28;20034;-73
2021/04/11 02:52:58;;;;;;;1.58;0.30;;;25.60;28.60;;;;;;5003509;28;20030;-79
2021/04/11 02:55:29;;;;;;;0.60;0.20;;;25.50;28.40;;;;;;4971997;28;20044;-79
2021/04/11 02:57:57;;;;;;;0.82;0.40;;;25.80;27.90;;;;;;5005656;28;20037;-77
2021/04/11 03:00:28;;;;;;;0.30;0.10;;;25.80;27.70;;;;;;5007041;28;20384;-79
2021/04/11 03:02:56;;;;;;;1.58;0.50;;;25.80;29.40;;;;;;5004081;28;20389;-77
2021/04/11 03:05:25;;;;;;;1.00;0.30;;;26.00;27.90;;;;;;5003827;28;20022;-77
2021/04/11 03:07:58;;;;;;;1.40;0.22;;;25.80;27.40;;;;;;5003891;28;20030;-75
2021/04/11 03:10:48;;;;;;;2.40;1.55;;;25.60;27.90;;;;;;5002637;28;20401;-75
2021/04/11 03:13:18;;;;;;;1.35;0.25;;;25.70;31.40;;;;;;5008119;28;20042;-76
2021/04/11 03:15:46;;;;;;;0.80;0.30;;;25.90;28.90;;;;;;5007867;28;20087;-75
2021/04/11 03:18:15;;;;;;;1.15;0.20;;;26.50;27.60;;;;;;5005274;28;20042;-73
2021/04/11 03:20:43;;;;;;;0.85;0.20;;;26.20;26.50;;;;;;5006259;28;20427;-75
2021/04/11 03:23:12;;;;;;;0.73;0.10;;;25.50;26.10;;;;;;5003860;28;20611;-78
2021/04/11 03:25:41;;;;;;;4.43;0.38;;;24.90;28.50;;;;;;5010360;28;20018;-76
2021/04/11 03:28:15;;;;;;;2.72;0.30;;;24.60;28.10;;;;;;5006755;28;20030;-74
2021/04/11 03:30:42;;;;;;;1.85;0.32;;;24.70;29.10;;;;;;5008105;28;20032;-80
2021/04/11 03:33:13;;;;;;;0.60;0.15;;;24.60;27.90;;;;;;5003848;28;20041;-79
2021/04/11 03:35:44;;;;;;;2.17;0.25;;;24.70;29.10;;;;;;5007508;28;20050;-77
2021/04/11 03:38:13;;;;;;;0.40;0.20;;;25.20;28.20;;;;;;5005950;28;20033;-76
2021/04/11 03:40:45;;;;;;;1.00;0.35;;;25.00;28.80;;;;;;5008218;28;20038;-74
2021/04/11 03:43:34;;;;;;;1.95;0.15;;;24.90;28.60;;;;;;5009279;28;20030;-76
2021/04/11 03:46:26;;;;;;;0.47;0.30;;;24.40;27.40;;;;;;5006730;28;20030;-82
2021/04/11 03:48:58;;;;;;;2.15;0.20;;;24.40;29.20;;;;;;5007798;28;20026;-77
2021/04/11 03:51:28;;;;;;;2.85;0.60;;;24.60;29.30;;;;;;5007513;28;20054;-80
2021/04/11 03:54:07;;;;;;;1.08;0.45;;;24.70;29.20;;;;;;5009348;28;20464;-78
2021/04/11 03:56:40;;;;;;;0.70;0.35;;;24.80;29.00;;;;;;5007486;28;20038;-77
2021/04/11 03:59:09;;;;;;;0.45;0.13;;;24.80;28.90;;;;;;5004036;28;20457;-75
2021/04/11 04:01:45;;;;;;;0.65;0.30;;;25.10;29.10;;;;;;5004727;28;20060;-77
2021/04/11 04:04:20;;;;;;;0.95;0.20;;;25.20;29.50;;;;;;5008310;28;20480;-74
2021/04/11 04:07:12;;;;;;;1.05;0.20;;;25.30;27.80;;;;;;5000694;28;20164;-75
2021/04/11 04:09:42;;;;;;;3.33;0.40;;;25.30;27.80;;;;;;4999924;28;20081;-74
2021/04/11 04:12:20;;;;;;;2.05;0.25;;;24.90;27.90;;;;;;5000134;28;20037;-76
2021/04/11 04:14:56;;;;;;;0.30;0.10;;;24.70;28.40;;;;;;5002206;28;20033;-74
2021/04/11 04:17:54;;;;;;;2.78;0.20;;;24.20;28.80;;;;;;5002446;28;20033;-79
2021/04/11 04:20:37;;;;;;;1.70;0.20;;;23.60;29.30;;;;;;5001612;28;20025;-73
2021/04/11 04:23:13;;;;;;;1.83;0.40;;;23.70;30.40;;;;;;5000056;28;20026;-77
2021/04/11 04:25:59;;;;;;;0.88;0.15;;;23.90;28.60;;;;;;5003483;28;20092;-78
2021/04/11 04:28:53;;;;;;;0.52;0.20;;;24.00;28.90;;;;;;4998661;28;20086;-80
2021/04/11 04:31:50;;;;;;;1.38;0.30;;;24.20;30.00;;;;;;4998008;28;20081;-79
2021/04/11 04:34:26;;;;;;;0.73;0.17;;;24.60;30.70;;;;;;4999382;28;20274;-79
2021/04/11 04:37:16;;;;;;;1.63;0.20;;;24.70;29.20;;;;;;5004534;28;20033;-77
2021/04/11 04:39:52;;;;;;;2.15;0.43;;;24.00;29.40;;;;;;5008182;28;20088;-81
2021/04/11 04:42:27;;;;;;;2.03;0.25;;;23.70;29.30;;;;;;5003596;28;20026;-83
2021/04/11 04:45:27;;;;;;;1.27;0.20;;;23.50;31.20;;;;;;5005918;28;20040;-79
2021/04/11 04:48:19;;;;;;;3.92;0.20;;;23.70;29.50;;;;;;5005166;28;20135;-83
2021/04/11 04:51:00;;;;;;;0.65;0.30;;;23.60;30.50;;;;;;5006139;28;20026;-76
2021/04/11 04:53:56;;;;;;;1.42;0.20;;;23.50;30.20;;;;;;5008083;28;20029;-80
2021/04/11 04:56:38;;;;;;;0.70;0.30;;;23.10;30.30;;;;;;5007344;28;20029;-79
2021/04/11 04:59:14;;;;;;;0.17;0.10;;;23.20;30.10;;;;;;5006391;28;20038;-74
2021/04/11 05:02:01;;;;;;;0.82;0.10;;;23.00;30.30;;;;;;5002201;28;20034;-76
2021/04/11 05:04:31;;;;;;;0.68;0.20;;;22.80;30.20;;;;;;5006905;28;20103;-77
2021/04/11 05:07:13;;;;;;;1.83;0.20;;;22.90;31.90;;;;;;5005618;28;20022;-78
2021/04/11 05:09:48;;;;;;;1.00;0.30;;;22.70;30.00;;;;;;5004638;28;20109;-76
2021/04/11 05:12:51;;;;;;;1.98;0.50;;;22.50;30.80;;;;;;4997168;28;20108;-75
2021/04/11 05:15:26;;;;;;;0.25;0.10;;;22.70;30.90;;;;;;4990022;28;20088;-76
2021/04/11 05:18:04;;;;;;;2.58;0.35;;;22.80;30.40;;;;;;5000749;28;20092;-75
2021/04/11 05:20:35;;;;;;;2.83;0.40;;;22.70;31.00;;;;;;5000333;28;20022;-77
2021/04/11 05:23:05;;;;;;;0.47;0.10;;;22.50;31.10;;;;;;4998222;28;20110;-76
2021/04/11 05:25:38;;;;;;;0.50;0.30;;;22.30;31.10;;;;;;5003669;28;20084;-77
2021/04/11 05:28:14;;;;;;;1.15;0.30;;;22.50;31.30;;;;;;5001732;28;20022;-74
2021/04/11 05:31:05;;;;;;;1.17;0.30;;;22.40;31.00;;;;;;4999987;28;20021;-76
2021/04/11 05:33:35;;;;;;;1.25;0.20;;;22.30;31.60;;;;;;4999899;28;20061;-75
2021/04/11 05:36:27;;;;;;;1.85;0.20;;;22.20;31.40;;;;;;4999358;28;20057;-75
2021/04/11 05:39:14;;;;;;;1.50;0.20;;;22.00;32.20;;;;;;4999521;28;20045;-75
2021/04/11 05:42:00;;;;;;;2.53;0.50;;;22.10;31.20;;;;;;4998423;28;21015;-75
2021/04/11 05:44:53;;;;;;;1.77;0.20;;;21.80;30.40;;;;;;4998737;28;20040;-75
2021/04/11 05:47:27;;;;;;;1.35;0.20;;;21.80;30.50;;;;;;4999064;28;20022;-77
2021/04/11 05:50:04;;;;;;;3.88;0.30;;;21.30;30.00;;;;;;4999947;28;20026;-74
2021/04/11 05:52:53;;;;;;;1.42;0.22;;;21.20;30.70;;;;;;5000428;28;20034;-76
2021/04/11 05:55:23;;;;;;;2.05;0.47;;;21.10;29.90;;;;;;4994422;28;20034;-76
2021/04/11 05:58:07;;;;;;;0.82;0.20;;;21.00;30.70;;;;;;5001707;28;20052;-77
2021/04/11 06:00:48;;;;;;;1.15;0.30;;;21.10;31.20;;;;;;5000517;28;20749;-76
2021/04/11 06:03:28;;;;;;;2.08;0.20;;;21.00;31.20;;;;;;5001745;28;20045;-75
2021/04/11 06:06:13;;;;;;;1.27;0.10;;;21.00;31.70;;;;;;5003482;28;20045;-75
2021/04/11 06:09:23;;;;;;;5.13;0.22;;;20.90;31.60;;;;;;4998749;28;20042;-74
2021/04/11 06:12:15;;;;;;;0.80;0.20;;;21.10;31.70;;;;;;4970455;28;20032;-79
2021/04/11 06:14:54;;;;;;;1.00;0.65;;;21.00;32.20;;;;;;5000541;28;20041;-74
2021/04/11 06:17:23;;;;;;;2.25;0.20;;;21.00;32.20;;;;;;4999295;28;20033;-75
2021/04/11 06:19:50;;;;;;;1.05;0.20;;;20.90;32.20;;;;;;5003533;28;20080;-79
2021/04/11 06:22:28;;;;;;;0.88;0.17;;;20.90;33.30;;;;;;5001023;28;20029;-77
2021/04/11 06:25:03;;;;;;;4.78;0.57;;;21.20;32.70;;;;;;5002736;28;20053;-75
2021/04/11 06:27:54;;;;;;;0.73;0.20;;;20.90;32.00;;;;;;5002550;28;20487;-75
2021/04/11 06:30:44;;;;;;;1.92;0.28;;;20.70;32.50;;;;;;5005913;28;20096;-76
2021/04/11 06:33:21;;;;;;;1.13;0.20;;;20.40;33.70;;;;;;5004043;28;20120;-78
2021/04/11 06:35:56;;;;;;;2.72;0.40;;;20.40;34.00;;;;;;5004408;28;20033;-79
2021/04/11 06:38:27;;;;;;;2.60;0.22;;;20.40;34.70;;;;;;5006826;28;20046;-78
2021/04/11 06:41:31;;;;;;;0.88;0.20;;;20.10;33.70;;;;;;5006569;28;20049;-77
2021/04/11 06:44:34;;;;;;;2.30;0.35;;;19.90;34.70;;;;;;5004346;28;20096;-78
2021/04/11 06:47:23;;;;;;;1.60;0.20;;;19.70;33.90;;;;;;5021602;28;20029;-78
2021/04/11 06:50:19;;;;;;;4.93;0.52;;;19.50;34.60;;;;;;5010355;28;20018;-78
2021/04/11 06:53:23;;;;;;;1.45;0.60;;;19.30;34.40;;;;;;5008181;28;20528;-76
2021/04/11 06:55:59;;;;;;;1.25;0.35;;;19.10;35.70;;;;;;5010365;28;20105;-77
2021/04/11 06:58:39;;;;;;;1.77;0.38;;;19.10;34.70;;;;;;5004485;28;20048;-75
2021/04/11 07:01:10;;;;;;;1.17;0.30;;;19.00;35.80;;;;;;5007336;28;20030;-75
2021/04/11 07:03:49;;;;;;;1.05;0.40;;;18.80;36.20;;;;;;5006753;28;20733;-77
2021/04/11 07:06:33;;;;;;;2.85;0.65;;;18.70;36.20;;;;;;5021401;28;20495;-79
2021/04/11 07:09:47;;;;;;;2.10;0.50;;;18.70;37.60;;;;;;5009199;28;20033;-81
2021/04/11 07:12:32;;;;;;;3.42;0.50;;;18.70;37.60;;;;;;5000655;28;20065;-76
2021/04/11 07:15:11;;;;;;;0.40;0.20;;;18.60;37.40;;;;;;5003582;28;20037;-79
2021/04/11 07:18:20;;;;;;;1.42;0.30;;;18.30;37.70;;;;;;5002166;28;20065;-77
2021/04/11 07:21:12;;;;;;;1.75;0.65;;;18.00;37.90;;;;;;4995960;28;20033;-79
2021/04/11 07:24:00;;;;;;;2.97;0.50;;;17.90;38.50;;;;;;5006402;28;20036;-78
2021/04/11 07:26:39;;;;;;;1.95;0.40;;;17.70;38.40;;;;;;5002251;28;20026;-78
2021/04/11 07:29:37;;;;;;;1.92;0.30;;;17.50;37.90;;;;;;5009471;28;20030;-77
2021/04/11 07:32:23;;;;;;;0.32;0.13;;;17.50;38.50;;;;;;5006425;28;20030;-75
2021/04/11 07:35:17;;;;;;;0.90;0.43;;;17.30;39.60;;;;;;5004328;28;20491;-78
2021/04/11 07:38:00;;;;;;;1.00;0.47;;;17.20;39.40;;;;;;5006149;28;20054;-76
2021/04/11 07:41:00;;;;;;;2.65;0.57;;;17.20;40.40;;;;;;5004283;28;20037;-77
2021/04/11 07:44:04;;;;;;;1.92;0.45;;;17.00;40.40;;;;;;5006474;28;20018;-78
2021/04/11 07:46:49;;;;;;;3.25;0.30;;;16.80;40.90;;;;;;5004924;28;20081;-79
2021/04/11 07:49:41;;;;;;;3.53;0.30;;;16.70;41.80;;;;;;5003756;28;20111;-76
2021/04/11 07:52:26;;;;;;;1.88;0.50;;;16.60;41.60;;;;;;5008276;28;20022;-79
2021/04/11 07:55:21;;;;;;;3.10;0.60;;;16.60;42.10;;;;;;5005776;28;20088;-80
2021/04/11 07:58:22;;;;;;;3.10;0.68;;;16.60;42.00;;;;;;5005949;28;20299;-76
2021/04/11 08:01:20;;;;;;;0.65;0.28;;;16.50;41.70;;;;;;5006218;28;20052;-76
2021/04/11 08:04:26;;;;;;;2.05;0.30;;;16.50;42.20;;;;;;5005250;28;20033;-77
2021/04/11 08:07:33;;;;;;;2.60;0.38;;;16.40;42.70;;;;;;5002397;28;20116;-83
2021/04/11 08:10:25;;;;;;;3.13;0.65;;;16.40;42.90;;;;;;5003043;28;20022;-78
2021/04/11 08:13:07;;;;;;;1.52;0.50;;;16.30;43.10;;;;;;4999444;28;20030;-83
2021/04/11 08:15:51;;;;;;;0.68;0.40;;;16.20;43.10;;;;;;5002402;28;20387;-79
2021/04/11 08:18:25;;;;;;;2.17;0.38;;;16.10;43.40;;;;;;5001624;28;20488;-77
2021/04/11 08:21:46;;;;;;;2.90;0.95;;;16.10;43.20;;;;;;5003277;28;20052;-81
2021/04/11 08:24:49;;;;;;;5.22;2.28;;;16.00;43.40;;;;;;4983438;28;20045;-80
2021/04/11 08:27:47;;;;;;;1.63;0.70;;;15.90;43.60;;;;;;4999698;28;20129;-78
2021/04/11 08:30:49;;;;;;;2.83;0.38;;;15.90;44.10;;;;;;5005719;28;20022;-77
2021/04/11 08:33:25;;;;;;;3.20;0.30;;;15.80;44.30;;;;;;4991954;28;20456;-77
2021/04/11 08:36:01;;;;;;;1.27;0.63;;;15.80;43.80;;;;;;5005910;28;20570;-78
2021/04/11 08:39:10;;;;;;;3.42;0.22;;;15.70;44.70;;;;;;5003822;28;20034;-77
2021/04/11 08:41:58;;;;;;;1.90;0.20;;;15.60;44.50;;;;;;5003763;28;20061;-77
2021/04/11 08:45:00;;;;;;;1.00;0.52;;;15.50;44.20;;;;;;5001504;28;20029;-78
2021/04/11 08:47:48;;;;;;;1.17;0.20;;;15.60;44.30;;;;;;4999108;28;20396;-78
2021/04/11 08:50:28;;;;;;;1.25;0.22;;;15.60;44.00;;;;;;5000301;28;20121;-78
2021/04/11 08:53:07;;;;;;;2.58;0.40;;;15.50;43.90;;;;;;4999051;28;20125;-78
2021/04/11 08:55:39;;;;;;;1.73;0.20;;;15.50;44.40;;;;;;5002634;28;20026;-80
2021/04/11 08:58:28;;;;;;;2.28;0.20;;;15.40;44.40;;;;;;4999343;28;20038;-79
2021/04/11 09:01:18;;;;;;;1.80;0.20;;;15.40;45.40;;;;;;5010578;28;20037;-77
2021/04/11 09:04:04;;;;;;;0.88;0.52;;;15.30;45.30;;;;;;5001273;28;20151;-80
2021/04/11 09:07:16;;;;;;;1.20;0.30;;;15.20;45.30;;;;;;5016565;28;20395;-78
2021/04/11 09:10:14;;;;;;;2.42;0.63;;;15.30;45.30;;;;;;4992937;28;20750;-77
2021/04/11 09:12:50;;;;;;;1.85;0.50;;;15.20;45.00;;;;;;4999350;28;20404;-79
2021/04/11 09:15:42;;;;;;;0.70;0.30;;;15.10;45.60;;;;;;4996873;28;20029;-77
2021/04/11 09:18:30;;;;;;;2.25;0.45;;;15.00;45.60;;;;;;4997707;28;20159;-76
2021/04/11 09:21:28;;;;;;;1.38;0.30;;;15.10;45.80;;;;;;5000871;28;20045;-78
2021/04/11 09:24:08;;;;;;;2.30;0.30;;;15.10;46.50;;;;;;4999964;28;20095;-77
2021/04/11 09:26:41;;;;;;;1.05;0.25;;;15.00;46.40;;;;;;4996671;28;20493;-79
2021/04/11 09:29:20;;;;;;;1.00;0.20;;;15.00;46.80;;;;;;4987869;28;20030;-78
2021/04/11 09:32:24;;;;;;;2.05;0.20;;;14.90;46.40;;;;;;4989798;28;20034;-79
2021/04/11 09:35:24;;;;;;;1.98;0.73;;;14.90;46.70;;;;;;4996402;28;20086;-80
2021/04/11 09:38:06;;;;;;;4.10;0.85;;;15.00;47.00;;;;;;4997072;28;20123;-79
2021/04/11 09:41:05;;;;;;;0.55;0.17;;;14.90;46.70;;;;;;4999990;28;20081;-77
2021/04/11 09:43:55;;;;;;;0.47;0.20;;;14.80;47.10;;;;;;5006084;28;20268;-77
2021/04/11 09:46:53;;;;;;;2.97;0.22;;;14.80;47.40;;;;;;4999198;28;20026;-77
2021/04/11 09:49:38;;;;;;;1.27;0.25;;;14.70;46.80;;;;;;4991819;28;20025;-78
2021/04/11 09:52:20;;;;;;;4.78;0.25;;;14.70;47.40;;;;;;4990032;28;20044;-76
2021/04/11 09:55:05;;;;;;;2.38;0.38;;;14.70;47.90;;;;;;4988966;28;20380;-77
2021/04/11 09:58:09;;;;;;;1.90;0.30;;;14.60;48.10;;;;;;4999428;28;20068;-77
2021/04/11 10:00:40;;;;;;;1.65;0.30;;;14.60;48.20;;;;;;5007980;28;20025;-77
2021/04/11 10:03:26;;;;;;;1.02;0.30;;;14.60;47.90;;;;;;4998661;28;20049;-77
2021/04/11 10:06:09;;;;;;;0.63;0.30;;;14.50;48.30;;;;;;5003725;28;20026;-78
2021/04/11 10:08:58;;;;;;;1.48;0.20;;;14.50;48.40;;;;;;5012851;28;20033;-76
2021/04/11 10:11:41;;;;;;;0.50;0.30;;;14.40;49.00;;;;;;5013378;28;20068;-78
2021/04/11 10:14:18;;;;;;;2.22;0.40;;;14.30;48.60;;;;;;5009432;28;20046;-77
2021/04/11 10:17:10;;;;;;;0.57;0.20;;;14.30;49.60;;;;;;5006223;28;20375;-76
2021/04/11 10:20:15;;;;;;;1.35;0.28;;;14.30;49.40;;;;;;5009079;28;20046;-77
2021/04/11 10:23:00;;;;;;;1.65;0.15;;;14.30;48.90;;;;;;4941485;28;20041;-76
2021/04/11 10:26:09;;;;;;;0.68;0.20;;;14.20;48.80;;;;;;5009784;28;20112;-77
2021/04/11 10:28:46;;;;;;;1.08;0.20;;;14.20;49.60;;;;;;4910676;29;20027;-77
2021/04/11 10:31:26;;;;;;;1.10;0.17;;;14.20;50.10;;;;;;5015948;28;20425;-76
2021/04/11 10:34:33;;;;;;;0.57;0.20;;;14.20;49.70;;;;;;5008783;28;20038;-77
2021/04/11 10:37:15;;;;;;;0.75;0.20;;;14.20;49.60;;;;;;5003581;28;20045;-76
2021/04/11 10:40:01;;;;;;;1.50;0.35;;;14.20;50.40;;;;;;5005480;28;20022;-78
2021/04/11 10:42:32;;;;;;;0.77;0.30;;;14.20;50.80;;;;;;5005042;28;20038;-77
2021/04/11 10:45:14;;;;;;;1.25;0.30;;;14.20;50.10;;;;;;5005707;28;21953;-80
2021/04/11 10:48:09;;;;;;;0.85;0.20;;;14.10;49.90;;;;;;5006415;28;20026;-77
2021/04/11 10:50:42;;;;;;;1.63;0.30;;;14.00;50.50;;;;;;5023515;28;20507;-76
2021/04/11 10:53:45;;;;;;;0.90;0.85;;;14.00;50.70;;;;;;5007121;28;20103;-77
2021/04/11 10:56:46;;;;;;;4.47;0.60;;;14.00;50.90;;;;;;5005576;28;20369;-77
2021/04/11 10:59:43;;;;;;;3.08;0.35;;;13.90;50.50;;;;;;5000150;28;20035;-76
2021/04/11 11:02:34;;;;;;;2.92;0.50;;;13.90;51.60;;;;;;4995813;28;20061;-76
2021/04/11 11:05:37;;;;;;;0.90;0.30;;;13.80;51.70;;;;;;4987071;28;20050;-76
2021/04/11 11:08:13;;;;;;;2.05;0.50;;;13.70;52.40;;;;;;4994307;28;20341;-77
2021/04/11 11:11:02;;;;;;;2.85;0.25;;;13.60;52.00;;;;;;4992897;28;20033;-77
2021/04/11 11:14:46;;;;;;;1.92;0.22;;;13.70;51.60;;;;;;5004947;28;20064;-77
2021/04/11 11:17:30;;;;;;;1.38;0.30;;;13.70;52.50;;;;;;4892673;29;20040;-77
2021/04/11 11:20:12;;;;;;;1.75;0.20;;;13.70;54.00;;;;;;4940603;28;20056;-76
2021/04/11 11:23:16;;;;;;;1.45;0.20;;;13.60;55.00;;;;;;5004344;28;20030;-76
2021/04/11 11:25:53;;;;;;;3.63;0.40;;;13.60;52.70;;;;;;5004782;28;20026;-78
2021/04/11 11:29:00;;;;;;;1.55;0.15;;;13.60;53.80;;;;;;5001821;28;20029;-76
2021/04/11 11:31:30;;;;;;;0.75;0.20;;;13.50;54.70;;;;;;5010290;28;20029;-76
2021/04/11 11:34:32;;;;;;;1.85;0.20;;;13.50;53.50;;;;;;5006147;28;20030;-77
2021/04/11 11:37:08;;;;;;;0.95;0.20;;;13.30;54.50;;;;;;4999809;28;20026;-77
2021/04/11 11:39:45;;;;;;;0.93;0.20;;;13.30;54.50;;;;;;4997058;28;20034;-77
2021/04/11 11:42:48;;;;;;;2.13;0.20;;;13.20;54.60;;;;;;5005337;28;20877;-77
2021/04/11 11:45:29;;;;;;;1.27;0.45;;;13.30;54.80;;;;;;4993203;28;20069;-77
2021/04/11 11:48:13;;;;;;;1.27;0.20;;;13.20;55.10;;;;;;4998143;28;20045;-77
2021/04/11 11:50:58;;;;;;;3.00;0.40;;;13.20;55.30;;;;;;5003244;28;20033;-78
2021/04/11 11:53:42;;;;;;;2.22;0.30;;;13.20;55.50;;;;;;5008640;28;20544;-77
2021/04/11 11:56:27;;;;;;;8.00;0.40;;;13.10;55.50;;;;;;5001001;28;20084;-78
2021/04/11 11:59:07;;;;;;;1.33;0.20;;;13.20;55.80;;;;;;4992866;28;20450;-77
2021/04/11 12:01:47;;;;;;;0.80;0.20;;;13.10;56.20;;;;;;4989786;28;20044;-77
2021/04/11 12:04:51;;;;;;;0.40;0.10;;;13.20;55.80;;;;;;4993759;28;20034;-76
2021/04/11 12:07:27;;;;;;;1.58;0.40;;;13.20;56.70;;;;;;4999312;28;20057;-77
2021/04/11 12:10:19;;;;;;;0.57;0.30;;;13.20;56.40;;;;;;5002543;28;20484;-77
2021/04/11 12:13:14;;;;;;;0.82;0.30;;;13.00;57.10;;;;;;5000440;28;20046;-78
2021/04/11 12:15:56;;;;;;;3.90;0.30;;;13.00;58.00;;;;;;5003902;28;20557;-77
2021/04/11 12:18:28;;;;;;;1.20;0.20;;;13.00;57.80;;;;;;5000682;28;20120;-77
2021/04/11 12:21:15;;;;;;;2.55;0.75;;;12.80;57.80;;;;;;5004318;28;20376;-78
2021/04/11 12:23:46;;;;;;;1.58;0.30;;;12.90;58.40;;;;;;4992416;28;20493;-77
2021/04/11 12:26:18;;;;;;;1.20;0.55;;;13.00;57.80;;;;;;5001224;28;20046;-79
2021/04/11 12:28:50;;;;;;;2.33;0.43;;;12.90;58.10;;;;;;5000145;28;20025;-78
2021/04/11 12:31:24;;;;;;;2.08;0.30;;;12.80;57.90;;;;;;4999743;28;20231;-78
2021/04/11 12:34:20;;;;;;;1.65;0.28;;;12.80;57.60;;;;;;5002182;28;20078;-78
2021/04/11 12:37:09;;;;;;;1.45;0.40;;;12.90;57.00;;;;;;5002447;28;20018;-78
2021/04/11 12:39:37;;;;;;;2.53;0.30;;;13.00;56.30;;;;;;5007136;28;20049;-78
2021/04/11 12:42:14;;;;;;;2.08;0.38;;;13.00;56.40;;;;;;5006720;28;20087;-79
2021/04/11 12:45:02;;;;;;;1.73;0.30;;;13.10;56.00;;;;;;5000945;28;20049;-78
2021/04/11 12:47:39;;;;;;;4.03;0.47;;;13.20;55.70;;;;;;5002589;28;20029;-80
2021/04/11 12:50:19;;;;;;;2.83;0.35;;;13.20;55.90;;;;;;5007384;28;20022;-78
2021/04/11 12:52:55;;;;;;;1.63;0.30;;;13.20;56.30;;;;;;5005189;28;20583;-78
2021/04/11 12:55:49;;;;;;;2.08;0.65;;;13.20;55.90;;;;;;5008855;28;20034;-77
2021/04/11 12:58:35;;;;;;;2.28;0.22;;;13.20;55.70;;;;;;5005824;28;20396;-77
2021/04/11 13:01:12;;;;;;;2.45;0.30;;;13.20;55.90;;;;;;5007066;28;20044;-77
2021/04/11 13:04:05;;;;;;;2.17;0.40;;;13.20;55.90;;;;;;5005583;28;20018;-77
2021/04/11 13:06:48;;;;;;;2.47;0.40;;;13.20;56.40;;;;;;5004729;28;20029;-78
2021/04/11 13:09:36;;;;;;;2.80;0.60;;;13.10;56.60;;;;;;5012188;28;20021;-77
2021/04/11 13:12:22;;;;;;;1.33;0.30;;;13.20;56.60;;;;;;5006863;28;20030;-77
2021/04/11 13:15:12;;;;;;;2.05;0.30;;;13.10;56.90;;;;;;5002161;28;20030;-76
2021/04/11 13:17:45;;;;;;;1.02;0.30;;;13.10;57.20;;;;;;5004596;28;20053;-77
2021/04/11 13:21:01;;;;;;;2.38;0.30;;;13.00;57.60;;;;;;5009343;28;20018;-79
2021/04/11 13:23:37;;;;;;;3.72;1.02;;;13.00;57.70;;;;;;5005696;28;20066;-77
2021/04/11 13:26:10;;;;;;;;;;;13.00;57.90;;;;;;5008667;28;20026;-77
2021/04/11 13:29:02;;;;;;;2.85;0.35;;;12.90;57.60;;;;;;5008737;28;19995;-78
2021/04/11 13:31:57;;;;;;;6.15;0.52;;;12.90;58.20;;;;;;5003731;28;20026;-77
2021/04/11 13:34:34;;;;;;;1.65;0.35;;;12.80;57.90;;;;;;5003204;28;20034;-76
2021/04/11 13:37:08;;;;;;;2.85;0.50;;;12.80;58.10;;;;;;5020329;28;20064;-77
2021/04/11 13:39:38;;;;;;;2.08;0.50;;;12.80;57.90;;;;;;5008762;28;20133;-78
2021/04/11 13:42:18;;;;;;;2.63;0.30;;;12.80;58.30;;;;;;5006017;28;20049;-78
2021/04/11 13:45:06;;;;;;;3.80;0.50;;;12.80;58.00;;;;;;5002851;28;20117;-77
2021/04/11 13:47:57;;;;;;;1.98;0.30;;;12.80;58.10;;;;;;5005263;28;20041;-79
2021/04/11 13:50:42;;;;;;;1.58;0.32;;;12.80;58.60;;;;;;5007924;28;20041;-78
2021/04/11 13:53:29;;;;;;;2.72;0.30;;;12.70;58.70;;;;;;5004822;28;20030;-79
2021/04/11 13:56:07;;;;;;;3.00;0.50;;;12.60;59.00;;;;;;5008504;28;20057;-79
2021/04/11 13:58:52;;;;;;;2.30;0.52;;;12.60;59.50;;;;;;5007501;28;20048;-79
2021/04/11 14:01:44;;;;;;;2.70;0.32;;;12.60;59.20;;;;;;5006668;28;20076;-79
2021/04/11 14:04:25;;;;;;;1.75;0.40;;;12.60;59.50;;;;;;5006684;28;20029;-77